createdAt,value
2022-10-17T00:02:25.520Z,52.88
2022-10-17T00:04:52.361Z,52.05
2022-10-17T00:07:19.178Z,52.01
2022-10-17T00:09:46.057Z,53.28
2022-10-17T00:12:13.103Z,51.79
2022-10-17T00:14:39.950Z,54.10
2022-10-17T00:17:06.847Z,52.07
2022-10-17T00:19:33.669Z,52.05
2022-10-17T00:22:00.578Z,51.84
2022-10-17T00:24:27.421Z,51.44
2022-10-17T00:26:54.248Z,51.78
2022-10-17T00:29:21.087Z,52.26
2022-10-17T00:31:48.166Z,52.56
2022-10-17T00:34:15.071Z,52.85
2022-10-17T00:36:41.922Z,53.56
2022-10-17T00:39:09.556Z,54.05
2022-10-17T00:41:36.485Z,54.07
2022-10-17T00:44:08.023Z,54.02
2022-10-17T00:46:37.169Z,53.48
2022-10-17T00:49:08.356Z,54.06
2022-10-17T00:51:42.227Z,54.51
2022-10-17T00:54:11.315Z,55.95
2022-10-17T00:56:40.519Z,54.99
2022-10-17T00:59:12.387Z,53.61
2022-10-17T01:01:42.062Z,53.50
2022-10-17T01:04:10.358Z,54.55
2022-10-17T01:06:39.474Z,54.54
2022-10-17T01:09:06.398Z,54.29
2022-10-17T01:11:38.692Z,53.74
2022-10-17T01:14:23.941Z,53.03
2022-10-17T01:17:14.059Z,54.16
2022-10-17T01:20:02.885Z,54.94
2022-10-17T01:22:49.400Z,55.20
2022-10-17T01:25:21.904Z,54.58
2022-10-17T01:28:07.041Z,54.80
2022-10-17T01:30:49.616Z,54.41
2022-10-17T01:33:27.587Z,54.46
2022-10-17T01:36:08.403Z,54.21
2022-10-17T01:38:59.790Z,55.06
2022-10-17T01:41:46.781Z,55.91
2022-10-17T01:44:34.622Z,54.38
2022-10-17T01:47:09.621Z,55.56
2022-10-17T01:49:39.389Z,55.64
2022-10-17T01:52:15.457Z,55.73
2022-10-17T01:54:51.241Z,56.41
2022-10-17T01:57:32.230Z,55.26
2022-10-17T02:00:00.937Z,55.32
2022-10-17T02:02:29.175Z,54.38
2022-10-17T02:04:57.933Z,56.43
2022-10-17T02:07:25.248Z,55.38
2022-10-17T02:09:52.999Z,56.10
2022-10-17T02:13:10.871Z,56.62
2022-10-17T02:15:59.314Z,56.44
2022-10-17T02:18:44.453Z,56.77
2022-10-17T02:21:31.509Z,56.61
2022-10-17T02:24:13.269Z,55.16
2022-10-17T02:26:47.058Z,54.65
2022-10-17T02:29:19.499Z,56.40
2022-10-17T02:31:56.255Z,55.96
2022-10-17T02:34:32.328Z,58.29
2022-10-17T02:37:02.210Z,57.65
2022-10-17T02:39:30.640Z,56.84
2022-10-17T02:42:02.124Z,58.35
2022-10-17T02:44:32.426Z,58.62
2022-10-17T02:47:11.420Z,59.16
2022-10-17T02:49:42.511Z,59.40
2022-10-17T02:52:23.991Z,58.24
2022-10-17T02:55:17.417Z,57.98
2022-10-17T02:57:54.804Z,57.75
2022-10-17T03:00:23.845Z,56.97
2022-10-17T03:02:52.606Z,58.43
2022-10-17T03:05:25.600Z,58.14
2022-10-17T03:07:53.319Z,57.65
2022-10-17T03:10:20.738Z,57.29
2022-10-17T03:12:47.928Z,56.96
2022-10-17T03:15:15.276Z,57.18
2022-10-17T03:17:43.037Z,58.26
2022-10-17T03:20:10.940Z,58.30
2022-10-17T03:22:38.054Z,58.07
2022-10-17T03:25:06.286Z,57.49
2022-10-17T03:27:35.780Z,57.11
2022-10-17T03:30:02.576Z,58.11
2022-10-17T03:32:33.675Z,57.23
2022-10-17T03:35:00.566Z,57.05
2022-10-17T03:37:28.120Z,55.02
2022-10-17T03:39:55.278Z,55.27
2022-10-17T03:42:22.289Z,53.51
2022-10-17T03:44:49.183Z,54.15
2022-10-17T03:47:17.096Z,55.70
2022-10-17T03:49:45.008Z,56.21
2022-10-17T03:52:13.075Z,55.33
2022-10-17T03:54:40.863Z,55.29
2022-10-17T03:57:07.765Z,54.58
2022-10-17T03:59:36.010Z,54.24
2022-10-17T04:02:07.703Z,55.16
2022-10-17T04:04:35.514Z,53.82
2022-10-17T04:07:03.613Z,55.43
2022-10-17T04:09:30.866Z,54.21
2022-10-17T04:12:03.054Z,53.73
2022-10-17T04:14:31.396Z,53.85
2022-10-17T04:16:58.768Z,53.93
2022-10-17T04:19:26.932Z,55.28
2022-10-17T04:21:54.592Z,53.83
2022-10-17T04:24:21.988Z,53.43
2022-10-17T04:26:55.313Z,52.86
2022-10-17T04:29:25.889Z,56.34
2022-10-17T04:32:00.530Z,56.55
2022-10-17T04:34:35.664Z,56.55
2022-10-17T04:37:03.835Z,57.44
2022-10-17T04:39:31.284Z,58.23
2022-10-17T04:41:58.257Z,58.45
2022-10-17T04:44:25.174Z,56.31
2022-10-17T04:46:52.862Z,56.46
2022-10-17T04:49:20.218Z,56.26
2022-10-17T04:51:51.481Z,56.46
2022-10-17T04:54:41.423Z,54.64
2022-10-17T04:57:10.477Z,53.92
2022-10-17T04:59:39.277Z,52.88
2022-10-17T05:02:32.408Z,52.90
2022-10-17T05:05:01.611Z,53.94
2022-10-17T05:07:28.898Z,53.73
2022-10-17T05:09:58.905Z,54.32
2022-10-17T05:12:26.690Z,53.48
2022-10-17T05:14:54.171Z,53.57
2022-10-17T05:17:22.611Z,53.26
2022-10-17T05:19:49.944Z,52.52
2022-10-17T05:22:17.119Z,51.34
2022-10-17T05:24:43.947Z,50.96
2022-10-17T05:27:11.376Z,50.50
2022-10-17T05:29:39.165Z,50.08
2022-10-17T05:32:16.912Z,49.38
2022-10-17T05:34:43.829Z,48.84
2022-10-17T05:37:11.249Z,48.62
2022-10-17T05:39:39.274Z,49.48
2022-10-17T05:42:07.515Z,49.57
2022-10-17T05:44:35.209Z,48.87
2022-10-17T05:47:02.629Z,48.71
2022-10-17T05:49:43.908Z,48.42
2022-10-17T05:52:12.514Z,48.58
2022-10-17T05:54:54.803Z,47.73
2022-10-17T05:57:25.673Z,48.30
2022-10-17T05:59:52.621Z,47.89
2022-10-17T06:02:20.678Z,47.11
2022-10-17T06:04:49.363Z,46.16
2022-10-17T06:07:18.346Z,45.16
2022-10-17T06:12:13.271Z,43.94
2022-10-17T06:14:42.763Z,43.31
2022-10-17T06:17:15.773Z,43.65
2022-10-17T06:19:44.921Z,43.13
2022-10-17T06:22:14.806Z,42.45
2022-10-17T06:24:42.713Z,41.84
2022-10-17T06:27:11.989Z,41.94
2022-10-17T06:29:40.777Z,41.15
2022-10-17T06:32:09.885Z,41.29
2022-10-17T06:34:40.936Z,40.88
2022-10-17T06:37:07.744Z,40.93
2022-10-17T06:39:39.119Z,39.96
2022-10-17T06:42:10.795Z,41.02
2022-10-17T06:44:57.929Z,40.43
2022-10-17T06:47:53.595Z,40.19
2022-10-17T06:50:40.099Z,40.01
2022-10-17T06:53:28.948Z,39.83
2022-10-17T06:56:14.414Z,40.44
2022-10-17T06:59:09.806Z,39.86
2022-10-17T07:01:40.651Z,39.25
2022-10-17T07:04:11.667Z,38.75
2022-10-17T07:06:39.155Z,39.00
2022-10-17T07:09:19.008Z,39.04
2022-10-17T07:11:46.275Z,39.03
2022-10-17T07:14:17.219Z,38.52
2022-10-17T07:16:44.124Z,38.79
2022-10-17T07:19:17.598Z,38.34
2022-10-17T07:21:44.549Z,39.44
2022-10-17T07:24:12.308Z,39.19
2022-10-17T07:26:42.018Z,38.59
2022-10-17T07:29:09.833Z,37.40
2022-10-17T07:31:45.711Z,37.99
2022-10-17T07:34:12.811Z,39.11
2022-10-17T07:36:39.791Z,38.21
2022-10-17T07:39:07.722Z,38.61
2022-10-17T07:41:36.591Z,39.01
2022-10-17T07:44:04.411Z,37.66
2022-10-17T07:46:35.737Z,37.60
2022-10-17T07:49:02.659Z,36.81
2022-10-17T07:51:29.596Z,36.24
2022-10-17T07:53:56.484Z,35.54
2022-10-17T07:56:24.869Z,37.44
2022-10-17T07:58:52.686Z,35.99
2022-10-17T08:01:19.595Z,36.34
2022-10-17T08:03:48.829Z,37.02
2022-10-17T08:06:15.810Z,36.27
2022-10-17T08:08:43.454Z,35.77
2022-10-17T08:11:12.866Z,35.25
2022-10-17T08:13:40.493Z,35.41
2022-10-17T08:16:10.436Z,36.02
2022-10-17T08:18:39.882Z,36.45
2022-10-17T08:21:08.420Z,35.86
2022-10-17T08:23:36.464Z,34.79
2022-10-17T08:26:06.229Z,35.02
2022-10-17T08:28:35.990Z,34.97
2022-10-17T08:31:08.378Z,34.35
2022-10-17T08:33:35.464Z,35.05
2022-10-17T08:36:03.889Z,35.64
2022-10-17T08:38:35.097Z,34.50
2022-10-17T08:41:07.200Z,34.79
2022-10-17T08:44:10.256Z,34.16
2022-10-17T08:46:41.442Z,33.70
2022-10-17T08:49:16.549Z,33.20
2022-10-17T08:51:51.674Z,33.83
2022-10-17T08:54:43.146Z,35.64
2022-10-17T08:57:13.559Z,36.72
2022-10-17T08:59:40.602Z,36.27
2022-10-17T09:02:28.660Z,36.48
2022-10-17T09:05:32.407Z,35.08
2022-10-17T09:08:20.136Z,33.50
2022-10-17T09:10:56.010Z,36.42
2022-10-17T09:13:59.027Z,37.31
2022-10-17T09:16:39.009Z,36.24
2022-10-17T09:19:23.431Z,37.93
2022-10-17T09:22:04.155Z,37.89
2022-10-17T09:24:38.808Z,38.42
2022-10-17T09:27:09.281Z,38.43
2022-10-17T09:29:41.512Z,39.24
2022-10-17T09:32:23.964Z,39.48
2022-10-17T09:34:53.331Z,38.90
2022-10-17T09:37:26.438Z,38.63
2022-10-17T09:39:53.262Z,37.63
2022-10-17T09:42:24.004Z,37.05
2022-10-17T09:45:05.691Z,36.09
2022-10-17T09:47:42.037Z,35.14
2022-10-17T09:50:31.180Z,35.48
2022-10-17T09:53:02.979Z,33.53
2022-10-17T09:55:42.459Z,33.25
2022-10-17T09:58:10.314Z,32.43
2022-10-17T10:00:42.845Z,32.62
2022-10-17T10:03:27.335Z,32.34
2022-10-17T10:06:18.395Z,33.17
2022-10-17T10:08:58.802Z,33.04
2022-10-17T10:11:49.906Z,32.17
2022-10-17T10:14:33.569Z,30.66
2022-10-17T10:17:00.877Z,30.73
2022-10-17T10:19:38.918Z,31.25
2022-10-17T10:22:17.169Z,32.02
2022-10-17T10:24:44.148Z,30.21
2022-10-17T10:27:17.937Z,30.94
2022-10-17T10:29:51.786Z,31.49
2022-10-17T10:35:32.488Z,31.69
2022-10-17T10:38:02.004Z,30.86
2022-10-17T10:40:54.844Z,31.37
2022-10-17T10:43:32.733Z,31.78
2022-10-17T10:46:00.715Z,30.61
2022-10-17T10:48:37.563Z,30.85
2022-10-17T10:51:16.525Z,31.59
2022-10-17T10:53:50.051Z,29.93
2022-10-17T10:56:31.296Z,29.14
2022-10-17T10:59:10.395Z,30.37
2022-10-17T11:02:15.867Z,29.74
2022-10-17T11:04:48.543Z,29.92
2022-10-17T11:07:25.981Z,28.93
2022-10-17T11:10:03.124Z,29.63
2022-10-17T11:12:48.272Z,29.18
2022-10-17T11:15:35.205Z,29.47
2022-10-17T11:18:08.410Z,30.89
2022-10-17T11:21:13.620Z,29.70
2022-10-17T11:23:47.986Z,30.37
2022-10-17T11:26:28.031Z,27.79
2022-10-17T11:28:57.055Z,28.41
2022-10-17T11:31:30.753Z,28.35
2022-10-17T11:34:06.042Z,28.22
2022-10-17T11:36:38.011Z,29.54
2022-10-17T11:39:16.201Z,27.87
2022-10-17T11:41:58.958Z,27.09
2022-10-17T11:44:34.385Z,27.52
2022-10-17T11:47:26.017Z,27.57
2022-10-17T11:53:14.293Z,29.47
2022-10-17T11:55:41.769Z,28.77
2022-10-17T11:58:24.067Z,29.00
2022-10-17T12:01:12.212Z,28.50
2022-10-17T12:04:09.488Z,28.71
2022-10-17T12:06:55.021Z,29.14
2022-10-17T12:09:34.643Z,29.23
2022-10-17T12:12:02.953Z,28.84
2022-10-17T12:14:43.350Z,28.52
2022-10-17T12:17:36.906Z,28.42
2022-10-17T12:20:24.885Z,28.59
2022-10-17T12:22:58.842Z,28.52
2022-10-17T12:25:34.700Z,29.73
2022-10-17T12:28:21.809Z,29.96
2022-10-17T12:30:57.485Z,28.97
2022-10-17T12:33:34.951Z,29.55
2022-10-17T12:36:17.179Z,27.89
2022-10-17T12:38:49.209Z,27.96
2022-10-17T12:41:37.399Z,28.83
2022-10-17T12:44:12.905Z,29.07
2022-10-17T12:46:52.888Z,30.04
2022-10-17T12:49:41.664Z,30.34
2022-10-17T12:52:19.216Z,30.73
2022-10-17T12:55:00.315Z,31.12
2022-10-17T12:57:39.630Z,30.33
2022-10-17T13:00:34.461Z,30.14
2022-10-17T13:03:26.473Z,30.89
2022-10-17T13:06:01.110Z,30.70
2022-10-17T13:08:31.209Z,29.23
2022-10-17T13:10:58.321Z,28.02
2022-10-17T13:13:44.769Z,29.57
2022-10-17T13:16:35.276Z,29.56
2022-10-17T13:19:12.387Z,29.14
2022-10-17T13:21:39.521Z,29.35
2022-10-17T13:24:30.139Z,29.28
2022-10-17T13:26:57.923Z,28.56
2022-10-17T13:29:25.969Z,28.22
2022-10-17T13:32:01.481Z,28.72
2022-10-17T13:34:29.043Z,28.62
2022-10-17T13:36:58.991Z,29.45
2022-10-17T13:39:45.008Z,29.60
2022-10-17T13:42:24.911Z,29.27
2022-10-17T13:44:52.324Z,29.39
2022-10-17T13:47:29.442Z,29.52
2022-10-17T13:49:57.977Z,29.09
2022-10-17T13:52:28.497Z,29.74
2022-10-17T13:55:06.080Z,29.20
2022-10-17T13:57:33.405Z,28.75
2022-10-17T14:00:27.456Z,28.86
2022-10-17T14:02:54.349Z,29.27
2022-10-17T14:05:23.407Z,29.18
2022-10-17T14:10:43.415Z,29.97
2022-10-17T14:13:28.468Z,30.42
2022-10-17T14:15:57.573Z,30.17
2022-10-17T14:18:35.951Z,29.94
2022-10-17T14:21:37.269Z,29.53
2022-10-17T14:23:53.512Z,30.43
2022-10-17T14:26:24.340Z,30.80
2022-10-17T14:29:06.463Z,30.81
2022-10-17T14:31:36.388Z,30.86
2022-10-17T14:34:05.353Z,30.94
2022-10-17T14:36:42.748Z,30.64
2022-10-17T14:39:24.464Z,30.76
2022-10-17T14:41:52.431Z,31.21
2022-10-17T14:44:24.116Z,31.72
2022-10-17T14:46:54.536Z,31.21
2022-10-17T14:49:39.300Z,31.59
2022-10-17T14:52:18.317Z,31.20
2022-10-17T14:54:50.038Z,32.19
2022-10-17T14:57:23.531Z,32.13
2022-10-17T14:59:55.004Z,32.39
2022-10-17T15:02:27.961Z,32.51
2022-10-17T15:04:55.334Z,33.14
2022-10-17T15:07:23.694Z,34.11
2022-10-17T15:09:52.135Z,34.27
2022-10-17T15:12:22.243Z,34.45
2022-10-17T15:14:49.657Z,34.43
2022-10-17T15:17:21.041Z,35.26
2022-10-17T15:19:48.657Z,34.53
2022-10-17T15:22:16.401Z,36.36
2022-10-17T15:24:43.509Z,35.20
2022-10-17T15:27:16.392Z,34.92
2022-10-17T15:29:43.687Z,35.44
2022-10-17T15:32:10.795Z,36.10
2022-10-17T15:34:38.214Z,36.54
2022-10-17T15:37:07.128Z,36.06
2022-10-17T15:39:34.202Z,36.32
2022-10-17T15:42:01.152Z,36.59
2022-10-17T15:44:28.352Z,36.87
2022-10-17T15:46:55.961Z,36.49
2022-10-17T15:49:22.802Z,37.04
2022-10-17T15:51:53.034Z,37.58
2022-10-17T15:54:22.260Z,37.70
2022-10-17T15:56:54.209Z,37.86
2022-10-17T15:59:26.339Z,37.89
2022-10-17T16:01:53.309Z,37.83
2022-10-17T16:04:20.093Z,38.01
2022-10-17T16:06:47.037Z,37.68
2022-10-17T16:09:13.962Z,37.45
2022-10-17T16:11:43.171Z,38.41
2022-10-17T16:14:15.748Z,38.09
2022-10-17T16:16:42.992Z,38.19
2022-10-17T16:19:10.049Z,39.07
2022-10-17T16:21:40.395Z,38.79
2022-10-17T16:24:09.517Z,39.03
2022-10-17T16:26:36.384Z,39.14
2022-10-17T16:29:04.862Z,39.26
2022-10-17T16:31:34.862Z,38.94
2022-10-17T16:34:03.380Z,39.62
2022-10-17T16:36:30.525Z,39.25
2022-10-17T16:38:57.630Z,39.88
2022-10-17T16:41:31.500Z,39.96
2022-10-17T16:44:00.879Z,40.29
2022-10-17T16:46:29.635Z,39.78
2022-10-17T16:48:58.789Z,40.04
2022-10-17T16:51:26.055Z,40.42
2022-10-17T16:53:54.526Z,40.67
2022-10-17T16:56:23.456Z,41.25
2022-10-17T16:58:51.765Z,41.14
2022-10-17T17:01:21.502Z,40.46
2022-10-17T17:03:48.607Z,40.93
2022-10-17T17:06:19.116Z,40.44
2022-10-17T17:08:46.405Z,41.33
2022-10-17T17:11:16.506Z,41.10
2022-10-17T17:13:43.909Z,41.61
2022-10-17T17:16:13.996Z,41.45
2022-10-17T17:18:41.981Z,41.73
2022-10-17T17:21:10.502Z,41.34
2022-10-17T17:23:39.892Z,42.15
2022-10-17T17:26:16.548Z,41.76
2022-10-17T17:28:43.977Z,40.74
2022-10-17T17:31:19.861Z,41.89
2022-10-17T17:33:47.115Z,41.49
2022-10-17T17:36:19.324Z,42.15
2022-10-17T17:38:47.442Z,42.23
2022-10-17T17:41:16.456Z,42.90
2022-10-17T17:43:44.582Z,42.16
2022-10-17T17:46:11.788Z,42.64
2022-10-17T17:48:39.940Z,42.23
2022-10-17T17:51:09.042Z,42.35
2022-10-17T17:53:36.944Z,44.28
2022-10-17T17:56:06.075Z,44.67
2022-10-17T17:58:33.644Z,45.86
2022-10-17T18:01:01.475Z,46.94
2022-10-17T18:03:28.355Z,46.69
2022-10-17T18:05:55.154Z,47.87
2022-10-17T18:08:22.077Z,49.24
2022-10-17T18:10:50.207Z,50.45
2022-10-17T18:13:17.414Z,51.50
2022-10-17T18:15:44.617Z,50.67
2022-10-17T18:18:11.487Z,51.43
2022-10-17T18:20:42.133Z,50.46
2022-10-17T18:23:09.950Z,51.27
2022-10-17T18:25:37.368Z,52.19
2022-10-17T18:28:04.464Z,51.82
2022-10-17T18:30:34.409Z,52.88
2022-10-17T18:33:01.418Z,53.03
2022-10-17T18:35:28.259Z,54.09
2022-10-17T18:37:57.056Z,53.50
2022-10-17T18:40:23.933Z,52.62
2022-10-17T18:42:50.786Z,54.08
2022-10-17T18:45:17.649Z,54.15
2022-10-17T18:47:47.378Z,53.98
2022-10-17T18:50:15.054Z,54.38
2022-10-17T18:52:41.912Z,53.81
2022-10-17T18:55:09.174Z,52.91
2022-10-17T18:57:36.051Z,54.70
2022-10-17T19:00:04.514Z,55.67
2022-10-17T19:02:34.375Z,54.75
2022-10-17T19:05:04.273Z,55.76
2022-10-17T19:07:31.391Z,55.34
2022-10-17T19:09:58.462Z,55.18
2022-10-17T19:12:25.298Z,54.98
2022-10-17T19:14:53.148Z,56.59
2022-10-17T19:17:19.998Z,55.63
2022-10-17T19:19:50.340Z,56.63
2022-10-17T19:22:17.377Z,57.53
2022-10-17T19:24:44.251Z,56.90
2022-10-17T19:27:12.306Z,57.16
2022-10-17T19:29:43.547Z,57.63
2022-10-17T19:32:15.731Z,57.39
2022-10-17T19:34:45.088Z,56.40
2022-10-17T19:37:11.954Z,55.78
2022-10-17T19:39:38.893Z,56.93
2022-10-17T19:42:06.950Z,56.76
2022-10-17T19:44:34.948Z,57.63
2022-10-17T19:47:01.757Z,57.18
2022-10-17T19:49:28.673Z,55.98
2022-10-17T19:51:55.570Z,55.30
2022-10-17T19:54:22.432Z,53.60
2022-10-17T19:56:49.345Z,53.93
2022-10-17T19:59:17.242Z,53.48
2022-10-17T20:01:44.786Z,52.37
2022-10-17T20:04:12.347Z,53.64
2022-10-17T20:06:40.704Z,53.29
2022-10-17T20:09:11.077Z,52.61
2022-10-17T20:11:41.250Z,52.73
2022-10-17T20:14:08.565Z,53.05
2022-10-17T20:16:36.552Z,54.12
2022-10-17T20:19:11.652Z,52.57
2022-10-17T20:21:39.985Z,53.51
2022-10-17T20:24:11.182Z,53.70
2022-10-17T20:26:39.381Z,54.02
2022-10-17T20:29:14.226Z,53.38
2022-10-17T20:31:43.115Z,53.09
2022-10-17T20:34:13.129Z,54.27
2022-10-17T20:36:40.432Z,54.73
2022-10-17T20:39:07.747Z,55.42
2022-10-17T20:41:34.851Z,54.76
2022-10-17T20:44:01.873Z,55.38
2022-10-17T20:46:37.287Z,55.26
2022-10-17T20:49:06.439Z,55.43
2022-10-17T20:51:33.944Z,54.73
2022-10-17T20:54:00.901Z,55.94
2022-10-17T20:56:30.103Z,55.26
2022-10-17T20:58:59.595Z,56.09
2022-10-17T21:01:27.153Z,56.99
2022-10-17T21:03:54.524Z,56.60
2022-10-17T21:06:22.727Z,57.36
2022-10-17T21:08:50.339Z,57.63
2022-10-17T21:11:19.802Z,57.89
2022-10-17T21:13:47.863Z,57.28
2022-10-17T21:16:18.384Z,56.96
2022-10-17T21:18:45.982Z,56.82
2022-10-17T21:21:27.804Z,56.39
2022-10-17T21:24:00.818Z,57.21
2022-10-17T21:26:28.183Z,56.37
2022-10-17T21:28:55.783Z,56.58
2022-10-17T21:31:27.784Z,57.27
2022-10-17T21:33:59.887Z,56.82
2022-10-17T21:36:28.017Z,57.24
2022-10-17T21:38:56.473Z,58.34
2022-10-17T21:41:25.835Z,59.61
2022-10-17T21:43:55.105Z,59.02
2022-10-17T21:46:22.782Z,59.88
2022-10-17T21:48:51.894Z,59.58
2022-10-17T21:51:25.262Z,59.34
2022-10-17T21:53:53.898Z,59.45
2022-10-17T21:56:23.222Z,58.30
2022-10-17T21:58:51.788Z,59.17
2022-10-17T22:01:22.557Z,57.96
2022-10-17T22:03:52.438Z,57.11
2022-10-17T22:06:39.331Z,58.70
2022-10-17T22:09:13.251Z,57.93
2022-10-17T22:11:40.580Z,57.76
2022-10-17T22:14:15.060Z,58.04
2022-10-17T22:16:44.306Z,57.44
2022-10-17T22:19:12.530Z,56.78
2022-10-17T22:21:39.664Z,56.02
2022-10-17T22:24:08.808Z,56.29
2022-10-17T22:26:37.348Z,56.98
2022-10-17T22:29:06.264Z,57.11
2022-10-17T22:31:34.085Z,56.45
2022-10-17T22:34:01.146Z,55.27
2022-10-17T22:36:28.085Z,57.41
2022-10-17T22:38:55.155Z,57.81
2022-10-17T22:41:22.468Z,58.42
2022-10-17T22:43:49.284Z,57.54
2022-10-17T22:46:17.030Z,56.99
2022-10-17T22:48:44.305Z,57.99
2022-10-17T22:51:12.029Z,58.38
2022-10-17T22:53:39.041Z,58.75
2022-10-17T22:56:07.735Z,59.07
2022-10-17T22:58:35.947Z,58.16
2022-10-17T23:01:06.151Z,57.98
2022-10-17T23:03:33.992Z,57.88
2022-10-17T23:06:01.044Z,57.80
2022-10-17T23:08:28.626Z,57.71
2022-10-17T23:10:55.502Z,57.76
2022-10-17T23:13:22.407Z,58.59
2022-10-17T23:15:57.272Z,57.39
2022-10-17T23:18:26.111Z,57.40
2022-10-17T23:20:54.067Z,57.17
2022-10-17T23:23:21.403Z,57.20
2022-10-17T23:25:49.459Z,57.46
2022-10-17T23:28:17.171Z,58.91
2022-10-17T23:30:44.217Z,58.84
2022-10-17T23:33:12.937Z,57.65
2022-10-17T23:35:40.568Z,57.29
2022-10-17T23:38:07.495Z,57.25
2022-10-17T23:40:35.417Z,57.42
2022-10-17T23:43:03.208Z,58.09
2022-10-17T23:45:34.664Z,58.10
2022-10-17T23:48:05.049Z,57.28
2022-10-17T23:50:31.925Z,58.07
2022-10-17T23:52:58.798Z,59.00
2022-10-17T23:55:25.649Z,58.33
2022-10-17T23:57:52.461Z,59.39
